createdAt,value
2023-02-13T00:00:15.857Z,41
2023-02-13T00:05:15.795Z,42
2023-02-13T00:10:14.593Z,42
2023-02-13T00:15:18.588Z,41
2023-02-13T00:20:16.589Z,42
2023-02-13T00:25:20.417Z,42
2023-02-13T00:30:14.214Z,42
2023-02-13T00:35:13.961Z,42
2023-02-13T00:40:19.822Z,40
2023-02-13T00:45:19.935Z,40
2023-02-13T00:50:17.755Z,41
2023-02-13T00:55:19.036Z,41
2023-02-13T01:00:19.877Z,41
2023-02-13T01:05:27.788Z,41
2023-02-13T01:10:16.638Z,41
2023-02-13T01:15:18.506Z,41
2023-02-13T01:20:18.303Z,41
2023-02-13T01:25:16.144Z,41
2023-02-13T01:30:17.970Z,41
2023-02-13T01:35:23.886Z,40
2023-02-13T01:40:18.084Z,41
2023-02-13T01:45:16.064Z,40
2023-02-13T01:50:18.040Z,41
2023-02-13T01:55:15.839Z,41
2023-02-13T02:00:17.759Z,41
2023-02-13T02:05:27.005Z,41
2023-02-13T02:10:15.805Z,41
2023-02-13T02:15:14.752Z,41
2023-02-13T02:20:18.501Z,41
2023-02-13T02:25:16.328Z,41
2023-02-13T02:30:18.423Z,41
2023-02-13T02:35:22.750Z,39
2023-02-13T02:40:17.766Z,40
2023-02-13T02:45:16.563Z,40
2023-02-13T02:50:16.408Z,40
2023-02-13T02:55:16.327Z,40
2023-02-13T03:00:16.209Z,40
2023-02-13T03:05:14.029Z,40
2023-02-13T03:10:19.893Z,39
2023-02-13T03:15:17.774Z,40
2023-02-13T03:20:17.601Z,40
2023-02-13T03:25:16.412Z,40
2023-02-13T03:30:16.203Z,40
2023-02-13T03:35:13.995Z,40
2023-02-13T03:40:15.903Z,40
2023-02-13T03:45:17.743Z,40
2023-02-13T03:50:18.501Z,40
2023-02-13T03:55:18.284Z,40
2023-02-13T04:00:20.232Z,40
2023-02-13T04:05:14.906Z,40
2023-02-13T04:10:13.675Z,40
2023-02-13T04:15:18.509Z,40
2023-02-13T04:20:18.367Z,40
2023-02-13T04:25:14.152Z,40
2023-02-13T04:30:18.065Z,40
2023-02-13T04:35:17.895Z,40
2023-02-13T04:40:15.768Z,40
2023-02-13T04:45:16.760Z,39
2023-02-13T04:50:14.535Z,39
2023-02-13T04:55:16.327Z,39
2023-02-13T05:00:20.164Z,39
2023-02-13T05:05:17.938Z,39
2023-02-13T05:10:23.883Z,38
2023-02-13T05:15:22.153Z,39
2023-02-13T05:20:18.126Z,39
2023-02-13T05:25:17.990Z,40
2023-02-13T05:30:13.836Z,40
2023-02-13T05:35:22.203Z,42
2023-02-13T05:40:14.118Z,43
2023-02-13T05:45:14.013Z,43
2023-02-13T05:50:22.029Z,44
2023-02-13T05:55:15.896Z,42
2023-02-13T06:00:15.970Z,42
2023-02-13T06:05:16.284Z,43
2023-02-13T06:10:14.242Z,44
2023-02-13T06:15:14.223Z,44
2023-02-13T06:20:20.204Z,45
2023-02-13T06:25:20.128Z,45
2023-02-13T06:30:14.099Z,44
2023-02-13T06:35:21.034Z,45
2023-02-13T06:40:15.886Z,44
2023-02-13T06:45:13.698Z,44
2023-02-13T06:50:20.851Z,44
2023-02-13T06:55:15.720Z,47
2023-02-13T07:00:20.906Z,46
2023-02-13T07:05:16.525Z,46
2023-02-13T07:10:16.427Z,45
2023-02-13T07:15:16.431Z,44
2023-02-13T07:20:18.436Z,44
2023-02-13T07:25:20.342Z,44
2023-02-13T07:30:14.200Z,44
2023-02-13T07:35:16.572Z,43
2023-02-13T07:40:24.519Z,43
2023-02-13T07:45:18.530Z,44
2023-02-13T07:50:14.407Z,44
2023-02-13T07:55:26.485Z,44
2023-02-13T08:00:26.676Z,42
2023-02-13T08:05:16.221Z,44
2023-02-13T08:10:20.123Z,43
2023-02-13T08:15:17.915Z,43
2023-02-13T08:20:18.029Z,43
2023-02-13T08:25:17.956Z,43
2023-02-13T08:30:15.814Z,42
2023-02-13T08:35:17.719Z,43
2023-02-13T08:40:18.508Z,43
2023-02-13T08:45:16.400Z,42
2023-02-13T08:50:18.298Z,42
2023-02-13T08:55:24.429Z,43
2023-02-13T09:00:20.851Z,41
2023-02-13T09:05:13.715Z,43
2023-02-13T09:10:20.902Z,42
2023-02-13T09:15:13.792Z,42
2023-02-13T09:20:17.693Z,43
2023-02-13T09:25:14.591Z,43
2023-02-13T09:30:22.648Z,43
2023-02-13T09:35:25.149Z,41
2023-02-13T09:40:20.187Z,42
2023-02-13T09:45:16.057Z,42
2023-02-13T09:50:15.894Z,43
2023-02-13T09:55:15.778Z,42
2023-02-13T10:00:18.736Z,42
2023-02-13T10:05:20.660Z,42
2023-02-13T10:10:26.882Z,42
2023-02-13T10:15:15.840Z,42
2023-02-13T10:20:15.838Z,42
2023-02-13T10:25:13.694Z,42
2023-02-13T10:30:14.831Z,42
2023-02-13T10:35:23.682Z,41
2023-02-13T10:40:20.033Z,40
2023-02-13T10:45:18.096Z,41
2023-02-13T10:50:27.975Z,41
2023-02-13T10:55:23.057Z,41
2023-02-13T11:00:16.342Z,41
2023-02-13T11:05:17.754Z,42
2023-02-13T11:10:16.618Z,43
2023-02-13T11:15:18.856Z,43
2023-02-13T11:20:21.036Z,43
2023-02-13T11:25:15.811Z,44
2023-02-13T11:30:13.838Z,43
2023-02-13T11:35:18.167Z,44
2023-02-13T11:40:22.061Z,43
2023-02-13T11:45:20.017Z,43
2023-02-13T11:50:13.952Z,43
2023-02-13T11:55:20.991Z,43
2023-02-13T12:00:16.038Z,42
2023-02-13T12:05:18.532Z,42
2023-02-13T12:10:20.683Z,41
2023-02-13T12:15:22.705Z,42
2023-02-13T12:20:17.827Z,42
2023-02-13T12:25:21.860Z,42
2023-02-13T12:30:14.070Z,42
2023-02-13T12:35:16.026Z,42
2023-02-13T12:40:15.900Z,42
2023-02-13T12:45:15.761Z,42
2023-02-13T12:50:14.581Z,42
2023-02-13T12:55:20.504Z,42
2023-02-13T13:00:18.318Z,42
2023-02-13T13:05:20.293Z,42
2023-02-13T13:10:14.128Z,42
2023-02-13T13:15:16.074Z,42
2023-02-13T13:20:26.738Z,42
2023-02-13T13:25:16.591Z,42
2023-02-13T13:30:23.195Z,42
2023-02-13T13:35:16.534Z,41
2023-02-13T13:40:16.411Z,42
2023-02-13T13:45:18.818Z,42
2023-02-13T13:50:17.646Z,43
2023-02-13T13:55:22.504Z,41
2023-02-13T14:00:14.903Z,42
2023-02-13T14:05:19.700Z,41
2023-02-13T14:10:14.528Z,41
2023-02-13T14:15:14.574Z,42
2023-02-13T14:20:19.717Z,41
2023-02-13T14:25:16.534Z,41
2023-02-13T14:30:20.775Z,40
2023-02-13T14:35:17.703Z,41
2023-02-13T14:40:20.589Z,41
2023-02-13T14:45:14.467Z,41
2023-02-13T14:50:14.417Z,41
2023-02-13T14:55:16.677Z,42
2023-02-13T15:00:20.741Z,41
2023-02-13T15:05:16.174Z,41
2023-02-13T15:10:19.979Z,41
2023-02-13T15:15:14.252Z,42
2023-02-13T15:20:14.015Z,41
2023-02-13T15:25:21.790Z,41
2023-02-13T15:30:17.298Z,41
2023-02-13T15:35:20.236Z,40
2023-02-13T15:40:16.213Z,41
2023-02-13T15:45:14.135Z,42
2023-02-13T15:50:17.994Z,40
2023-02-13T15:55:19.848Z,42
2023-02-13T16:00:15.776Z,42
2023-02-13T16:05:41.012Z,42
2023-02-13T16:10:14.436Z,42
2023-02-13T16:15:14.626Z,42
2023-02-13T16:20:15.073Z,42
2023-02-13T16:25:16.690Z,42
2023-02-13T16:30:16.475Z,41
2023-02-13T16:35:20.405Z,40
2023-02-13T16:40:16.586Z,42
2023-02-13T16:45:16.478Z,42
2023-02-13T16:50:16.520Z,42
2023-02-13T16:55:14.376Z,41
2023-02-13T17:00:16.828Z,42
2023-02-13T17:05:18.542Z,42
2023-02-13T17:10:24.662Z,42
2023-02-13T17:15:15.695Z,42
2023-02-13T17:20:22.648Z,42
2023-02-13T17:25:16.397Z,41
2023-02-13T17:30:16.843Z,42
2023-02-13T17:35:29.896Z,41
2023-02-13T17:40:17.774Z,42
2023-02-13T17:45:16.868Z,42
2023-02-13T17:50:24.519Z,42
2023-02-13T17:55:22.505Z,41
2023-02-13T18:00:14.634Z,43
2023-02-13T18:05:13.504Z,42
2023-02-13T18:10:20.405Z,44
2023-02-13T18:15:20.386Z,43
2023-02-13T18:20:14.230Z,44
2023-02-13T18:25:19.971Z,43
2023-02-13T18:30:14.737Z,44
2023-02-13T18:35:24.903Z,42
2023-02-13T18:40:14.004Z,44
2023-02-13T18:45:24.755Z,43
2023-02-13T18:50:18.016Z,44
2023-02-13T18:55:15.893Z,43
2023-02-13T19:00:13.652Z,43
2023-02-13T19:05:14.458Z,43
2023-02-13T19:10:18.467Z,42
2023-02-13T19:15:22.535Z,43
2023-02-13T19:20:18.644Z,43
2023-02-13T19:25:16.494Z,42
2023-02-13T19:30:16.660Z,43
2023-02-13T19:35:16.506Z,43
2023-02-13T19:40:22.379Z,42
2023-02-13T19:45:18.107Z,43
2023-02-13T19:50:15.817Z,43
2023-02-13T19:55:19.674Z,43
2023-02-13T20:00:18.534Z,43
2023-02-13T20:05:16.279Z,43
2023-02-13T20:10:22.252Z,43
2023-02-13T20:15:18.139Z,43
2023-02-13T20:20:21.917Z,43
2023-02-13T20:25:23.905Z,43
2023-02-13T20:30:22.067Z,42
2023-02-13T20:35:13.916Z,43
2023-02-13T20:40:13.691Z,43
2023-02-13T20:45:16.694Z,43
2023-02-13T20:50:24.837Z,43
2023-02-13T20:55:20.079Z,43
2023-02-13T21:00:19.975Z,44
2023-02-13T21:05:15.853Z,44
2023-02-13T21:10:13.994Z,44
2023-02-13T21:15:14.092Z,44
2023-02-13T21:20:19.873Z,44
2023-02-13T21:25:17.619Z,44
2023-02-13T21:30:15.903Z,43
2023-02-13T21:35:13.743Z,42
2023-02-13T21:40:18.539Z,42
2023-02-13T21:45:14.541Z,43
2023-02-13T21:50:18.370Z,42
2023-02-13T21:55:14.239Z,42
2023-02-13T22:00:24.251Z,42
2023-02-13T22:05:16.197Z,42
2023-02-13T22:10:21.975Z,43
2023-02-13T22:15:13.810Z,42
2023-02-13T22:20:20.591Z,42
2023-02-13T22:25:18.422Z,43
2023-02-13T22:30:21.058Z,42
2023-02-13T22:35:14.061Z,42
2023-02-13T22:40:13.855Z,42
2023-02-13T22:45:19.718Z,42
2023-02-13T22:50:22.480Z,42
2023-02-13T22:55:14.230Z,42
2023-02-13T23:00:22.058Z,42
2023-02-13T23:05:19.823Z,42
2023-02-13T23:10:19.675Z,42
2023-02-13T23:15:15.569Z,42
2023-02-13T23:20:24.618Z,41
2023-02-13T23:25:26.006Z,41
2023-02-13T23:30:18.540Z,42
2023-02-13T23:35:14.695Z,42
2023-02-13T23:40:26.886Z,42
2023-02-13T23:45:13.877Z,42
2023-02-13T23:50:15.704Z,42
2023-02-13T23:55:14.555Z,42
